Please be sure to check the latest weather conditions by clicking the link and viewing our local weather information!

Check Weather

Welcome to Lakeway Airpark (3R9)

FromTheAir

We’re a community airpark nestled within the town of Lakeway, Texas (17 miles northwest of downtown Austin).

Lakeway Airpark, Inc. was formed by Lakeway residents and interested parties to own and manage Lakeway Airpark (3R9).

The Airpark is a privately owned not for profit public use airport for residents and guests of Lakeway. No public funds are used and the airport is supported by fees and fuel sales at the airport.

Lakeway Airpark is an unmanned facility open for use from Sunrise to Sunset seven days a week. Takeoffs and landings are not permitted at night, between Sunset and Sunrise, by City Ordinance.

Quick Weather Info

Available data for KSMF from the past 2 hours

METAR
KSMF 260653Z 20005KT 10SM CLR 26/09 A2980 RMK AO2 SLP092 T02560089 $
KSMF 260553Z 25006KT 10SM CLR 27/08 A2980 RMK AO2 SLP090 T02720083 10389 20272 51010 $
TAF
KSMF 260526Z 2606/2706 22007KT P6SM SKC FM261200 VRB04KT P6SM SKC FM262200 24006KT P6SM SKC